createdAt,value
2023-04-17T00:00:18.196Z,7.63
2023-04-17T00:02:46.520Z,7.70
2023-04-17T00:05:16.759Z,7.64
2023-04-17T00:07:44.798Z,7.55
2023-04-17T00:10:12.784Z,7.55
2023-04-17T00:12:40.999Z,7.53
2023-04-17T00:15:11.143Z,7.51
2023-04-17T00:17:39.222Z,7.42
2023-04-17T00:20:09.999Z,7.42
2023-04-17T00:22:38.038Z,7.40
2023-04-17T00:25:06.634Z,7.35
2023-04-17T00:27:34.554Z,7.38
2023-04-17T00:30:02.529Z,7.35
2023-04-17T00:32:31.763Z,7.32
2023-04-17T00:34:59.620Z,7.29
2023-04-17T00:37:27.484Z,7.27
2023-04-17T00:39:55.444Z,7.18
2023-04-17T00:42:23.377Z,7.20
2023-04-17T00:44:51.243Z,7.17
2023-04-17T00:47:22.310Z,7.15
2023-04-17T00:49:51.990Z,7.13
2023-04-17T00:52:30.828Z,7.09
2023-04-17T00:55:00.245Z,7.09
2023-04-17T00:57:28.537Z,7.04
2023-04-17T00:59:58.117Z,7.04
2023-04-17T01:02:26.791Z,7.03
2023-04-17T01:04:56.321Z,6.98
2023-04-17T01:07:24.908Z,6.98
2023-04-17T01:09:53.144Z,6.99
2023-04-17T01:12:22.649Z,6.95
2023-04-17T01:14:51.798Z,6.95
2023-04-17T01:17:20.485Z,6.91
2023-04-17T01:19:49.657Z,6.88
2023-04-17T01:22:20.499Z,6.83
2023-04-17T01:24:52.910Z,6.81
2023-04-17T01:27:22.536Z,6.80
2023-04-17T01:29:50.737Z,6.53
2023-04-17T01:32:19.587Z,6.81
2023-04-17T01:34:47.560Z,6.75
2023-04-17T01:37:15.440Z,6.63
2023-04-17T01:39:43.415Z,6.73
2023-04-17T01:42:12.714Z,6.76
2023-04-17T01:44:40.675Z,6.77
2023-04-17T01:47:08.604Z,6.72
2023-04-17T01:49:36.542Z,6.67
2023-04-17T01:52:04.456Z,6.64
2023-04-17T01:54:32.362Z,6.62
2023-04-17T01:57:01.304Z,6.61
2023-04-17T01:59:30.598Z,6.60
2023-04-17T02:01:58.584Z,6.61
2023-04-17T02:04:26.752Z,6.58
2023-04-17T02:06:55.068Z,6.56
2023-04-17T02:09:22.981Z,6.53
2023-04-17T02:11:51.016Z,6.56
2023-04-17T02:14:20.235Z,6.47
2023-04-17T02:16:50.085Z,6.48
2023-04-17T02:19:18.190Z,6.41
2023-04-17T02:21:46.094Z,6.42
2023-04-17T02:24:14.046Z,6.41
2023-04-17T02:26:41.982Z,6.42
2023-04-17T02:29:09.963Z,6.37
2023-04-17T02:31:38.144Z,6.37
2023-04-17T02:34:07.598Z,6.22
2023-04-17T02:36:35.540Z,6.33
2023-04-17T02:39:05.443Z,6.32
2023-04-17T02:41:33.486Z,6.25
2023-04-17T02:44:02.174Z,6.25
2023-04-17T02:46:30.302Z,6.21
2023-04-17T02:48:58.253Z,6.21
2023-04-17T02:51:27.708Z,6.15
2023-04-17T02:53:55.626Z,6.23
2023-04-17T02:56:23.550Z,6.24
2023-04-17T02:58:51.521Z,6.27
2023-04-17T03:01:19.535Z,6.25
2023-04-17T03:03:48.177Z,6.25
2023-04-17T03:06:16.622Z,6.23
2023-04-17T03:08:45.859Z,6.12
2023-04-17T03:11:14.027Z,6.18
2023-04-17T03:13:42.198Z,6.18
2023-04-17T03:16:10.218Z,6.13
2023-04-17T03:18:41.499Z,6.12
2023-04-17T03:21:09.470Z,6.15
2023-04-17T03:23:37.531Z,6.15
2023-04-17T03:26:09.432Z,6.14
2023-04-17T03:28:37.961Z,6.09
2023-04-17T03:31:06.504Z,6.10
2023-04-17T03:33:35.450Z,6.06
2023-04-17T03:36:03.662Z,6.02
2023-04-17T03:38:31.699Z,6.00
2023-04-17T03:40:59.734Z,5.99
2023-04-17T03:43:29.328Z,5.84
2023-04-17T03:45:57.375Z,5.93
2023-04-17T03:48:25.524Z,5.93
2023-04-17T03:50:54.085Z,5.91
2023-04-17T03:53:22.595Z,5.88
2023-04-17T03:55:51.573Z,5.87
2023-04-17T03:58:30.989Z,5.88
2023-04-17T04:01:02.059Z,5.81
2023-04-17T04:03:33.596Z,5.69
2023-04-17T04:06:01.788Z,5.76
2023-04-17T04:08:29.951Z,5.76
2023-04-17T04:10:58.029Z,5.70
2023-04-17T04:13:36.535Z,5.71
2023-04-17T04:16:06.183Z,5.70
2023-04-17T04:18:37.384Z,5.67
2023-04-17T04:21:06.760Z,5.63
2023-04-17T04:23:41.173Z,5.64
2023-04-17T04:26:11.732Z,5.62
2023-04-17T04:28:49.152Z,5.60
2023-04-17T04:31:37.840Z,5.57
2023-04-17T04:34:06.331Z,5.65
2023-04-17T04:36:36.075Z,5.66
2023-04-17T04:39:20.253Z,5.69
2023-04-17T04:41:48.263Z,5.67
2023-04-17T04:44:17.654Z,5.67
2023-04-17T04:46:47.330Z,5.65
2023-04-17T04:49:15.437Z,5.70
2023-04-17T04:51:43.604Z,5.69
2023-04-17T04:54:11.818Z,5.69
2023-04-17T04:56:47.620Z,5.74
2023-04-17T04:59:18.232Z,5.74
2023-04-17T05:01:53.954Z,5.75
2023-04-17T05:04:24.541Z,5.79
2023-04-17T05:06:56.978Z,5.75
2023-04-17T05:09:25.093Z,5.85
2023-04-17T05:11:56.935Z,5.86
2023-04-17T05:14:26.253Z,5.92
2023-04-17T05:16:55.230Z,5.91
2023-04-17T05:19:23.761Z,5.99
2023-04-17T05:21:56.950Z,6.01
2023-04-17T05:24:25.177Z,6.03
2023-04-17T05:26:53.498Z,6.08
2023-04-17T05:29:21.477Z,6.12
2023-04-17T05:31:50.876Z,6.19
2023-04-17T05:34:40.476Z,6.24
2023-04-17T05:37:09.384Z,6.27
2023-04-17T05:39:37.978Z,6.29
2023-04-17T05:42:06.290Z,6.42
2023-04-17T05:44:34.136Z,6.49
2023-04-17T05:47:03.546Z,6.56
2023-04-17T05:49:31.751Z,6.59
2023-04-17T05:51:59.982Z,6.48
2023-04-17T05:54:30.199Z,6.75
2023-04-17T05:56:58.997Z,6.82
2023-04-17T05:59:27.304Z,6.91
2023-04-17T06:01:55.521Z,6.92
2023-04-17T06:04:25.203Z,7.07
2023-04-17T06:06:53.295Z,7.13
2023-04-17T06:09:23.000Z,7.22
2023-04-17T06:11:51.870Z,7.35
2023-04-17T06:14:20.125Z,7.29
2023-04-17T06:16:48.581Z,7.54
2023-04-17T06:19:17.862Z,7.61
2023-04-17T06:21:47.621Z,7.69
2023-04-17T06:24:15.496Z,7.84
2023-04-17T06:26:48.012Z,7.91
2023-04-17T06:29:16.050Z,8.04
2023-04-17T06:31:45.198Z,8.09
2023-04-17T06:34:15.115Z,8.32
2023-04-17T06:36:47.224Z,8.38
2023-04-17T06:39:16.962Z,8.62
2023-04-17T06:41:45.316Z,8.71
2023-04-17T06:44:13.462Z,9.00
2023-04-17T06:46:46.951Z,9.14
2023-04-17T06:49:15.138Z,9.44
2023-04-17T06:51:45.812Z,9.73
2023-04-17T06:54:15.304Z,9.81
2023-04-17T06:56:43.272Z,10.09
2023-04-17T06:59:11.455Z,10.22
2023-04-17T07:01:46.484Z,10.41
2023-04-17T07:04:14.761Z,11.18
2023-04-17T07:06:42.738Z,11.50
2023-04-17T07:09:10.717Z,11.79
2023-04-17T07:11:40.036Z,11.82
2023-04-17T07:14:07.924Z,11.70
2023-04-17T07:16:36.067Z,12.22
2023-04-17T07:19:04.062Z,12.65
2023-04-17T07:21:32.654Z,13.41
2023-04-17T07:24:00.798Z,13.34
2023-04-17T07:26:28.695Z,13.37
2023-04-17T07:28:58.043Z,14.20
2023-04-17T07:31:27.054Z,14.21
2023-04-17T07:33:55.128Z,14.15
2023-04-17T07:36:24.010Z,14.14
2023-04-17T07:38:51.895Z,14.98
2023-04-17T07:41:19.857Z,16.12
2023-04-17T07:43:47.820Z,15.63
2023-04-17T07:46:17.126Z,17.47
2023-04-17T07:48:45.044Z,16.74
2023-04-17T07:51:12.912Z,16.97
2023-04-17T07:53:40.878Z,16.94
2023-04-17T07:56:09.351Z,16.47
2023-04-17T07:58:38.209Z,16.89
2023-04-17T08:01:06.569Z,17.89
2023-04-17T08:03:36.271Z,18.53
2023-04-17T08:06:04.483Z,18.19
2023-04-17T08:08:32.429Z,18.27
2023-04-17T08:11:00.411Z,19.06
2023-04-17T08:13:30.543Z,19.23
2023-04-17T08:15:59.514Z,19.55
2023-04-17T08:18:27.589Z,20.45
2023-04-17T08:20:56.807Z,19.42
2023-04-17T08:23:24.796Z,19.23
2023-04-17T08:25:52.722Z,19.62
2023-04-17T08:28:21.110Z,19.85
2023-04-17T08:30:49.094Z,21.37
2023-04-17T08:33:18.395Z,20.07
2023-04-17T08:35:46.730Z,20.70
2023-04-17T08:38:16.679Z,19.91
2023-04-17T08:40:47.107Z,19.07
2023-04-17T08:43:18.677Z,19.64
2023-04-17T08:45:52.850Z,18.73
2023-04-17T08:48:21.256Z,20.62
2023-04-17T08:50:51.318Z,21.53
2023-04-17T08:53:21.456Z,20.77
2023-04-17T08:55:49.666Z,21.01
2023-04-17T08:58:17.861Z,19.57
2023-04-17T09:00:46.493Z,19.12
2023-04-17T09:03:16.722Z,19.06
2023-04-17T09:05:46.037Z,19.03
2023-04-17T09:08:15.784Z,18.89
2023-04-17T09:10:46.760Z,19.53
2023-04-17T09:13:17.335Z,19.16
2023-04-17T09:15:47.410Z,18.88
2023-04-17T09:18:26.288Z,19.18
2023-04-17T09:20:54.252Z,18.71
2023-04-17T09:23:22.843Z,20.97
2023-04-17T09:26:06.891Z,20.83
2023-04-17T09:28:35.508Z,21.16
2023-04-17T09:31:05.543Z,22.76
2023-04-17T09:33:34.002Z,21.83
2023-04-17T09:36:22.936Z,20.84
2023-04-17T09:38:51.608Z,20.01
2023-04-17T09:41:26.085Z,20.19
2023-04-17T09:43:55.705Z,20.01
2023-04-17T09:46:35.313Z,19.40
2023-04-17T09:49:06.861Z,19.04
2023-04-17T09:51:35.450Z,19.54
2023-04-17T09:54:06.846Z,19.53
2023-04-17T09:56:37.759Z,19.34
2023-04-17T09:59:07.034Z,18.73
2023-04-17T10:01:36.912Z,18.87
2023-04-17T10:04:06.208Z,18.35
2023-04-17T10:06:35.993Z,18.10
2023-04-17T10:09:05.703Z,18.05
2023-04-17T10:11:39.420Z,18.03
2023-04-17T10:14:14.823Z,18.17
2023-04-17T10:16:43.805Z,19.11
2023-04-17T10:19:31.987Z,19.08
2023-04-17T10:22:32.582Z,19.41
2023-04-17T10:25:23.739Z,20.01
2023-04-17T10:27:58.356Z,21.50
2023-04-17T10:30:48.973Z,20.65
2023-04-17T10:33:22.920Z,20.31
2023-04-17T10:35:52.316Z,20.42
2023-04-17T10:38:35.382Z,20.31
2023-04-17T10:41:05.607Z,19.62
2023-04-17T10:43:34.903Z,19.43
2023-04-17T10:46:04.539Z,19.60
2023-04-17T10:48:34.913Z,19.89
2023-04-17T10:51:23.315Z,20.02
2023-04-17T10:53:52.294Z,19.89
2023-04-17T10:56:27.012Z,19.93
2023-04-17T10:59:00.936Z,20.21
2023-04-17T11:01:32.671Z,19.91
2023-04-17T11:04:00.874Z,19.89
2023-04-17T11:06:29.748Z,21.05
2023-04-17T11:08:58.465Z,20.79
2023-04-17T11:11:42.986Z,21.16
2023-04-17T11:14:15.581Z,21.24
2023-04-17T11:16:48.434Z,21.55
2023-04-17T11:19:19.814Z,20.68
2023-04-17T11:21:49.678Z,21.37
2023-04-17T11:24:24.127Z,22.17
2023-04-17T11:26:52.043Z,21.39
2023-04-17T11:29:23.005Z,20.45
2023-04-17T11:31:52.396Z,20.38
2023-04-17T11:34:20.917Z,19.94
2023-04-17T11:36:52.068Z,19.87
2023-04-17T11:39:20.610Z,19.93
2023-04-17T11:41:49.426Z,20.30
2023-04-17T11:44:20.030Z,20.52
2023-04-17T11:46:52.166Z,19.98
2023-04-17T11:49:25.491Z,19.58
2023-04-17T11:51:53.561Z,18.92
2023-04-17T11:54:22.458Z,19.36
2023-04-17T11:56:59.493Z,20.24
2023-04-17T11:59:31.870Z,21.33
2023-04-17T12:02:01.982Z,21.13
2023-04-17T12:04:33.572Z,20.92
2023-04-17T12:07:02.581Z,19.79
2023-04-17T12:09:32.198Z,19.52
2023-04-17T12:12:01.314Z,19.36
2023-04-17T12:14:29.467Z,19.53
2023-04-17T12:16:57.654Z,19.04
2023-04-17T12:19:29.180Z,19.02
2023-04-17T12:21:57.242Z,18.34
2023-04-17T12:24:25.432Z,18.04
2023-04-17T12:26:54.453Z,18.14
2023-04-17T12:29:36.158Z,18.07
2023-04-17T12:32:11.427Z,19.14
2023-04-17T12:34:41.493Z,19.23
2023-04-17T12:37:09.940Z,19.12
2023-04-17T12:39:37.829Z,19.74
2023-04-17T12:42:05.968Z,20.63
2023-04-17T12:44:33.824Z,21.59
2023-04-17T12:47:01.794Z,22.99
2023-04-17T12:49:29.845Z,23.62
2023-04-17T12:52:01.040Z,21.76
2023-04-17T12:54:31.064Z,22.33
2023-04-17T12:56:59.027Z,21.70
2023-04-17T12:59:26.927Z,20.82
2023-04-17T13:01:54.865Z,20.29
2023-04-17T13:04:22.875Z,19.48
2023-04-17T13:06:50.936Z,19.13
2023-04-17T13:09:23.114Z,20.13
2023-04-17T13:11:51.098Z,19.40
2023-04-17T13:14:18.937Z,19.34
2023-04-17T13:16:48.633Z,18.43
2023-04-17T13:19:16.578Z,18.10
2023-04-17T13:21:44.403Z,18.93
2023-04-17T13:24:14.632Z,18.61
2023-04-17T13:26:44.012Z,19.53
2023-04-17T13:29:12.154Z,20.13
2023-04-17T13:31:40.270Z,19.32
2023-04-17T13:34:08.327Z,18.92
2023-04-17T13:36:36.146Z,18.37
2023-04-17T13:39:05.214Z,18.25
2023-04-17T13:41:33.106Z,18.04
2023-04-17T13:44:02.427Z,20.17
2023-04-17T13:46:31.314Z,20.90
2023-04-17T13:48:59.266Z,22.07
2023-04-17T13:51:27.936Z,23.15
2023-04-17T13:53:58.420Z,23.15
2023-04-17T13:56:26.924Z,23.36
2023-04-17T13:58:55.026Z,22.08
2023-04-17T14:01:24.304Z,22.97
2023-04-17T14:03:52.407Z,23.05
2023-04-17T14:06:20.431Z,23.80
2023-04-17T14:08:48.529Z,23.68
2023-04-17T14:11:17.903Z,23.45
2023-04-17T14:13:45.771Z,23.26
2023-04-17T14:16:13.690Z,23.17
2023-04-17T14:18:43.054Z,22.95
2023-04-17T14:21:11.096Z,20.44
2023-04-17T14:23:38.982Z,19.92
2023-04-17T14:26:07.093Z,19.07
2023-04-17T14:28:35.128Z,18.64
2023-04-17T14:31:03.203Z,18.93
2023-04-17T14:33:31.184Z,18.73
2023-04-17T14:36:00.522Z,19.17
2023-04-17T14:38:28.561Z,20.71
2023-04-17T14:40:56.553Z,20.97
2023-04-17T14:43:24.527Z,21.65
2023-04-17T14:45:52.375Z,20.99
2023-04-17T14:48:20.908Z,20.12
2023-04-17T14:50:48.952Z,19.48
2023-04-17T14:53:20.690Z,18.30
2023-04-17T14:55:49.594Z,18.55
2023-04-17T14:58:17.550Z,18.86
2023-04-17T15:00:45.466Z,18.59
2023-04-17T15:03:13.467Z,18.98
2023-04-17T15:05:41.479Z,19.26
2023-04-17T15:08:09.373Z,18.76
2023-04-17T15:10:50.333Z,18.95
2023-04-17T15:13:18.916Z,18.37
2023-04-17T15:15:46.917Z,17.97
2023-04-17T15:18:14.835Z,18.13
2023-04-17T15:20:42.743Z,18.08
2023-04-17T15:23:10.833Z,18.14
2023-04-17T15:25:40.234Z,18.20
2023-04-17T15:28:08.368Z,17.80
2023-04-17T15:30:36.520Z,17.73
2023-04-17T15:33:04.506Z,17.77
2023-04-17T15:35:32.447Z,17.52
2023-04-17T15:38:00.337Z,17.69
2023-04-17T15:40:28.534Z,17.37
2023-04-17T15:42:57.781Z,17.42
2023-04-17T15:45:26.223Z,17.50
2023-04-17T15:47:54.554Z,17.43
2023-04-17T15:50:23.027Z,17.34
2023-04-17T15:52:51.091Z,17.24
2023-04-17T15:55:19.106Z,17.18
2023-04-17T15:57:47.282Z,16.78
2023-04-17T16:00:17.561Z,16.87
2023-04-17T16:02:47.419Z,16.63
2023-04-17T16:05:15.904Z,16.41
2023-04-17T16:07:44.087Z,16.59
2023-04-17T16:10:14.690Z,16.48
2023-04-17T16:12:43.427Z,16.35
2023-04-17T16:15:12.624Z,16.08
2023-04-17T16:17:43.083Z,16.28
2023-04-17T16:20:12.249Z,16.10
2023-04-17T16:22:40.304Z,15.91
2023-04-17T16:25:09.069Z,15.84
2023-04-17T16:27:39.130Z,15.76
2023-04-17T16:30:08.633Z,15.65
2023-04-17T16:32:36.764Z,15.37
2023-04-17T16:35:07.494Z,15.42
2023-04-17T16:37:35.580Z,15.45
2023-04-17T16:40:05.052Z,15.15
2023-04-17T16:42:34.351Z,14.83
2023-04-17T16:45:02.511Z,14.84
2023-04-17T16:47:30.878Z,14.61
2023-04-17T16:49:58.787Z,14.51
2023-04-17T16:52:28.431Z,14.49
2023-04-17T16:54:56.405Z,14.47
2023-04-17T16:57:24.362Z,14.35
2023-04-17T16:59:52.244Z,14.19
2023-04-17T17:02:20.540Z,14.11
2023-04-17T17:04:48.588Z,13.97
2023-04-17T17:07:16.459Z,13.86
2023-04-17T17:09:45.798Z,13.77
2023-04-17T17:12:13.823Z,13.68
2023-04-17T17:14:41.762Z,13.51
2023-04-17T17:17:09.683Z,13.51
2023-04-17T17:19:37.679Z,13.43
2023-04-17T17:22:08.013Z,13.40
2023-04-17T17:24:36.172Z,13.36
2023-04-17T17:27:05.594Z,13.33
2023-04-17T17:29:33.782Z,13.32
2023-04-17T17:32:01.725Z,13.07
2023-04-17T17:34:30.473Z,13.27
2023-04-17T17:36:58.544Z,13.20
2023-04-17T17:39:26.524Z,13.15
2023-04-17T17:41:55.774Z,13.08
2023-04-17T17:44:25.084Z,13.01
2023-04-17T17:46:52.911Z,12.88
2023-04-17T17:49:20.818Z,12.76
2023-04-17T17:51:48.708Z,12.68
2023-04-17T17:54:16.716Z,12.58
2023-04-17T17:56:44.595Z,12.36
2023-04-17T17:59:12.559Z,12.09
2023-04-17T18:01:41.898Z,11.67
2023-04-17T18:04:10.013Z,11.71
2023-04-17T18:06:38.157Z,11.49
2023-04-17T18:09:06.493Z,11.32
2023-04-17T18:11:34.447Z,11.25
2023-04-17T18:14:02.348Z,11.07
2023-04-17T18:16:32.678Z,10.98
2023-04-17T18:19:04.819Z,10.79
2023-04-17T18:21:32.851Z,10.59
2023-04-17T18:24:01.680Z,10.50
2023-04-17T18:26:29.727Z,10.28
2023-04-17T18:28:57.551Z,9.68
2023-04-17T18:31:26.681Z,10.13
2023-04-17T18:33:55.053Z,9.52
2023-04-17T18:36:24.312Z,9.87
2023-04-17T18:38:52.374Z,9.75
2023-04-17T18:41:20.307Z,9.62
2023-04-17T18:43:48.272Z,9.47
2023-04-17T18:46:18.150Z,9.18
2023-04-17T18:48:46.136Z,9.19
2023-04-17T18:51:15.541Z,8.84
2023-04-17T18:53:44.808Z,8.95
2023-04-17T18:56:13.712Z,8.83
2023-04-17T18:58:41.730Z,8.71
2023-04-17T19:01:10.471Z,8.60
2023-04-17T19:03:38.754Z,8.54
2023-04-17T19:06:07.658Z,8.45
2023-04-17T19:08:35.946Z,8.31
2023-04-17T19:11:05.477Z,8.32
2023-04-17T19:13:33.442Z,8.19
2023-04-17T19:16:01.621Z,8.09
2023-04-17T19:18:29.613Z,7.98
2023-04-17T19:20:57.610Z,7.92
2023-04-17T19:23:25.669Z,7.91
2023-04-17T19:25:54.820Z,7.79
2023-04-17T19:28:24.246Z,7.80
2023-04-17T19:30:52.265Z,7.73
2023-04-17T19:33:22.731Z,7.57
2023-04-17T19:35:52.534Z,7.44
2023-04-17T19:38:20.508Z,7.57
2023-04-17T19:41:14.480Z,7.51
2023-04-17T19:43:43.947Z,7.44
2023-04-17T19:46:13.174Z,7.39
2023-04-17T19:48:43.507Z,7.27
2023-04-17T19:51:12.635Z,7.21
2023-04-17T19:53:41.897Z,7.22
2023-04-17T19:56:10.414Z,6.91
2023-04-17T19:58:39.004Z,7.18
2023-04-17T20:01:08.536Z,7.09
2023-04-17T20:03:38.406Z,7.05
2023-04-17T20:06:06.660Z,7.07
2023-04-17T20:08:34.929Z,7.10
2023-04-17T20:11:04.395Z,7.10
2023-04-17T20:13:32.400Z,7.15
2023-04-17T20:16:00.896Z,7.15
2023-04-17T20:18:30.233Z,7.19
2023-04-17T20:20:58.386Z,7.20
2023-04-17T20:23:26.487Z,6.79
2023-04-17T20:25:54.447Z,7.21
2023-04-17T20:28:22.875Z,7.19
2023-04-17T20:30:51.085Z,7.18
2023-04-17T20:33:19.086Z,7.21
2023-04-17T20:35:48.386Z,7.31
2023-04-17T20:38:16.310Z,7.34
2023-04-17T20:40:44.458Z,7.31
2023-04-17T20:43:13.074Z,7.35
2023-04-17T20:45:41.016Z,7.36
2023-04-17T20:48:09.696Z,7.36
2023-04-17T20:50:37.638Z,7.39
2023-04-17T20:53:06.980Z,7.39
2023-04-17T20:55:36.969Z,7.45
2023-04-17T20:58:04.947Z,7.46
2023-04-17T21:00:33.793Z,7.49
2023-04-17T21:03:02.131Z,7.49
2023-04-17T21:05:32.979Z,7.51
2023-04-17T21:08:00.861Z,7.53
2023-04-17T21:10:30.216Z,7.09
2023-04-17T21:12:58.182Z,7.56
2023-04-17T21:15:26.043Z,7.55
2023-04-17T21:17:53.980Z,7.54
2023-04-17T21:20:21.899Z,7.49
2023-04-17T21:22:49.824Z,7.58
2023-04-17T21:25:17.862Z,7.55
2023-04-17T21:27:47.092Z,7.57
2023-04-17T21:30:15.478Z,7.55
2023-04-17T21:32:43.377Z,7.55
2023-04-17T21:35:11.353Z,7.54
2023-04-17T21:37:39.313Z,7.54
2023-04-17T21:40:08.694Z,7.53
2023-04-17T21:42:36.638Z,7.49
2023-04-17T21:45:06.943Z,7.51
2023-04-17T21:47:35.532Z,7.51
2023-04-17T21:50:03.540Z,7.46
2023-04-17T21:52:31.957Z,7.49
2023-04-17T21:55:04.860Z,7.44
2023-04-17T21:57:32.959Z,7.37
2023-04-17T22:00:01.109Z,7.50
2023-04-17T22:02:30.376Z,7.50
2023-04-17T22:04:58.472Z,7.50
2023-04-17T22:07:26.428Z,7.36
2023-04-17T22:09:54.350Z,7.48
2023-04-17T22:12:22.346Z,7.47
2023-04-17T22:14:50.493Z,7.33
2023-04-17T22:17:18.372Z,7.42
2023-04-17T22:19:47.600Z,7.41
2023-04-17T22:22:15.501Z,7.37
2023-04-17T22:24:43.712Z,7.41
2023-04-17T22:27:11.582Z,7.39
2023-04-17T22:29:39.549Z,7.39
2023-04-17T22:32:07.476Z,7.33
2023-04-17T22:34:35.364Z,7.19
2023-04-17T22:37:04.623Z,7.32
2023-04-17T22:39:32.745Z,7.14
2023-04-17T22:42:01.101Z,7.29
2023-04-17T22:44:28.982Z,7.29
2023-04-17T22:46:56.891Z,7.29
2023-04-17T22:49:25.264Z,7.27
2023-04-17T22:51:53.627Z,7.24
2023-04-17T22:54:23.415Z,7.19
2023-04-17T22:56:51.624Z,7.21
2023-04-17T22:59:19.590Z,7.16
2023-04-17T23:01:47.474Z,7.22
2023-04-17T23:04:15.794Z,7.18
2023-04-17T23:06:43.814Z,7.16
2023-04-17T23:09:12.077Z,7.11
2023-04-17T23:11:41.449Z,7.12
2023-04-17T23:14:11.061Z,7.09
2023-04-17T23:16:39.167Z,7.06
2023-04-17T23:19:07.052Z,7.06
2023-04-17T23:21:34.959Z,7.00
2023-04-17T23:24:03.157Z,6.81
2023-04-17T23:26:31.060Z,6.95
2023-04-17T23:29:00.510Z,6.92
2023-04-17T23:31:28.482Z,6.87
2023-04-17T23:33:56.400Z,6.80
2023-04-17T23:36:24.281Z,6.83
2023-04-17T23:38:52.412Z,6.82
2023-04-17T23:41:20.344Z,6.72
2023-04-17T23:43:48.210Z,6.68
2023-04-17T23:46:17.647Z,6.69
2023-04-17T23:48:45.818Z,6.71
2023-04-17T23:51:13.785Z,6.64
2023-04-17T23:53:41.758Z,6.61
2023-04-17T23:56:09.685Z,6.59
2023-04-17T23:58:37.654Z,6.55
